Time;durP1;ratioP1;P1;durP2;ratioP2;P2;SDS_P1;SDS_P2;PMS_P1;PMS_P2;Temp;Humidity;BMP_temperature;BMP_pressure;BME280_temperature;BME280_humidity;BME280_pressure;Samples;Min_cycle;Max_cycle;Signal;HPM_P1;HPM_P2
2021/05/14 00:00:11;;;;;;;5.05;4.45;;;14.10;74.40;;;;;;5014165;28;20071;-89
2021/05/14 00:02:39;;;;;;;4.47;3.65;;;14.10;74.30;;;;;;5025405;28;20056;-88
2021/05/14 00:05:06;;;;;;;6.13;4.95;;;14.20;74.10;;;;;;5020229;28;20025;-91
2021/05/14 00:07:31;;;;;;;5.78;4.72;;;14.20;74.10;;;;;;5033947;28;20032;-90
2021/05/14 00:09:57;;;;;;;5.57;4.82;;;14.10;74.20;;;;;;5050722;28;20029;-89
2021/05/14 00:12:22;;;;;;;5.90;5.13;;;14.10;74.50;;;;;;5046443;28;20025;-91
2021/05/14 00:14:48;;;;;;;4.88;4.35;;;14.00;74.50;;;;;;5036029;28;20091;-91
2021/05/14 00:17:13;;;;;;;6.03;5.43;;;14.00;74.60;;;;;;5019571;28;20044;-90
2021/05/14 00:19:39;;;;;;;6.22;5.45;;;13.90;75.10;;;;;;5049687;28;20048;-89
2021/05/14 00:22:04;;;;;;;3.53;3.22;;;13.90;75.50;;;;;;5054159;28;20116;-89
2021/05/14 00:24:30;;;;;;;4.43;4.03;;;13.90;75.30;;;;;;5049678;28;20036;-90
2021/05/14 00:26:56;;;;;;;4.40;3.83;;;13.90;75.10;;;;;;5045755;28;20033;-91
2021/05/14 00:29:21;;;;;;;4.63;4.22;;;14.00;75.00;;;;;;5037935;28;20025;-89
2021/05/14 00:31:47;;;;;;;4.57;4.03;;;14.00;74.90;;;;;;5025033;28;20024;-89
2021/05/14 00:34:12;;;;;;;4.15;3.75;;;14.10;74.80;;;;;;5041222;28;20487;-90
2021/05/14 00:36:38;;;;;;;4.20;3.80;;;14.10;74.50;;;;;;5052358;28;20017;-89
2021/05/14 00:39:04;;;;;;;4.90;4.40;;;14.20;74.40;;;;;;5041045;28;20468;-89
2021/05/14 00:41:29;;;;;;;4.53;3.88;;;14.30;74.30;;;;;;5025129;28;20021;-90
2021/05/14 00:43:55;;;;;;;4.60;4.15;;;14.20;74.30;;;;;;5042475;28;20040;-89
2021/05/14 00:46:22;;;;;;;5.35;4.22;;;14.20;74.30;;;;;;5041903;28;20040;-91
2021/05/14 00:48:47;;;;;;;4.80;4.28;;;14.20;74.30;;;;;;5037095;28;20040;-90
2021/05/14 00:51:14;;;;;;;5.05;4.13;;;14.20;74.40;;;;;;5049426;28;20472;-90
2021/05/14 00:53:40;;;;;;;4.47;3.85;;;14.20;74.40;;;;;;5034730;28;20018;-91
2021/05/14 00:56:06;;;;;;;4.38;3.97;;;14.20;74.30;;;;;;5037781;28;20108;-92
2021/05/14 00:58:32;;;;;;;4.88;4.20;;;14.30;74.80;;;;;;5055062;28;20025;-90
2021/05/14 01:00:57;;;;;;;4.57;4.10;;;14.20;74.20;;;;;;5053598;28;20582;-89
2021/05/14 01:03:23;;;;;;;4.68;4.18;;;14.20;74.20;;;;;;5054164;28;20043;-90
2021/05/14 01:05:48;;;;;;;5.13;4.45;;;14.20;74.20;;;;;;5054032;28;20083;-91
2021/05/14 01:08:14;;;;;;;4.97;4.10;;;14.20;74.30;;;;;;5045846;28;20024;-90
2021/05/14 01:10:40;;;;;;;4.28;3.88;;;14.30;74.40;;;;;;5035921;28;20043;-92
2021/05/14 01:13:06;;;;;;;4.85;4.38;;;14.20;74.30;;;;;;5052352;28;20032;-92
2021/05/14 01:15:32;;;;;;;5.35;4.53;;;14.30;74.40;;;;;;5054253;28;20033;-90
2021/05/14 01:17:57;;;;;;;5.28;4.72;;;14.30;74.30;;;;;;5054442;28;20017;-90
2021/05/14 01:20:30;;;;;;;5.82;4.80;;;14.30;74.20;;;;;;5054368;28;20051;-90
2021/05/14 01:22:56;;;;;;;5.60;5.05;;;14.30;74.50;;;;;;5053090;28;20032;-90
2021/05/14 01:25:21;;;;;;;4.78;4.28;;;14.30;74.40;;;;;;5054222;28;20025;-91
2021/05/14 01:27:47;;;;;;;6.35;5.70;;;14.30;74.40;;;;;;5041625;28;20022;-88
2021/05/14 01:30:13;;;;;;;6.70;6.05;;;14.30;74.50;;;;;;5035799;28;20032;-87
2021/05/14 01:32:39;;;;;;;6.10;5.50;;;14.30;74.40;;;;;;5051406;28;20359;-87
2021/05/14 01:35:05;;;;;;;5.72;5.13;;;14.30;74.40;;;;;;5053239;28;20029;-89
2021/05/14 01:37:30;;;;;;;6.97;6.25;;;14.20;74.40;;;;;;5045617;28;20022;-89
2021/05/14 01:39:56;;;;;;;7.10;6.30;;;14.30;74.50;;;;;;5034678;28;20033;-89
2021/05/14 01:42:21;;;;;;;7.30;6.60;;;14.20;74.50;;;;;;5034066;28;20388;-88
2021/05/14 01:44:47;;;;;;;7.63;6.82;;;14.20;74.50;;;;;;5050087;28;20041;-88
2021/05/14 01:47:17;;;;;;;8.20;7.32;;;14.20;74.70;;;;;;5048757;28;20036;-89
2021/05/14 01:49:42;;;;;;;6.78;6.07;;;14.20;74.70;;;;;;5015806;28;20032;-89
2021/05/14 01:52:08;;;;;;;7.22;6.45;;;14.20;74.60;;;;;;5035590;28;20021;-89
2021/05/14 01:54:33;;;;;;;7.88;7.10;;;14.20;74.60;;;;;;5047380;28;20090;-89
2021/05/14 01:56:59;;;;;;;7.78;6.97;;;14.20;74.70;;;;;;5053459;28;20049;-89
2021/05/14 01:59:25;;;;;;;7.57;6.38;;;14.10;74.60;;;;;;5051862;28;20117;-89
2021/05/14 02:01:51;;;;;;;7.85;7.05;;;14.10;74.70;;;;;;5052127;28;20075;-89
2021/05/14 02:04:16;;;;;;;9.60;8.50;;;14.10;74.70;;;;;;5052027;28;20040;-88
2021/05/14 02:06:42;;;;;;;8.15;6.85;;;14.10;75.40;;;;;;5041433;28;20018;-88
2021/05/14 02:09:07;;;;;;;7.97;7.07;;;14.10;74.70;;;;;;5016787;28;20120;-95
2021/05/14 02:11:34;;;;;;;9.30;7.82;;;14.10;74.70;;;;;;5033694;28;20104;-93
2021/05/14 02:13:59;;;;;;;7.45;6.68;;;14.10;74.70;;;;;;5039648;28;20033;-93
2021/05/14 02:16:25;;;;;;;6.88;6.18;;;14.10;74.70;;;;;;5054071;28;20021;-94
2021/05/14 02:18:51;;;;;;;7.78;6.97;;;14.10;74.70;;;;;;5053817;28;20104;-93
2021/05/14 02:21:16;;;;;;;8.75;7.68;;;14.10;74.80;;;;;;5035874;28;20036;-93
2021/05/14 02:23:42;;;;;;;8.93;8.00;;;14.00;74.80;;;;;;5034925;28;20033;-94
2021/05/14 02:26:08;;;;;;;8.68;7.78;;;14.00;74.90;;;;;;5053152;28;20067;-92
2021/05/14 02:28:34;;;;;;;9.80;8.77;;;14.10;74.90;;;;;;5052438;28;20099;-90
2021/05/14 02:31:01;;;;;;;9.00;8.10;;;14.10;74.80;;;;;;5052439;28;20096;-91
2021/05/14 02:33:26;;;;;;;9.95;8.23;;;14.00;74.70;;;;;;5043399;28;20037;-90
2021/05/14 02:35:52;;;;;;;9.45;8.40;;;14.10;74.70;;;;;;5047192;28;20052;-90
2021/05/14 02:38:18;;;;;;;9.20;8.02;;;14.10;75.20;;;;;;5036598;28;20686;-89
2021/05/14 02:40:43;;;;;;;8.93;8.02;;;14.10;74.50;;;;;;5028722;28;20052;-88
2021/05/14 02:43:09;;;;;;;11.30;9.48;;;14.10;74.40;;;;;;5019778;28;20021;-89
2021/05/14 02:45:35;;;;;;;9.75;8.75;;;14.10;74.40;;;;;;5019134;28;20468;-89
2021/05/14 02:48:00;;;;;;;9.98;8.45;;;14.10;74.40;;;;;;5024109;28;20101;-90
2021/05/14 02:50:26;;;;;;;9.77;8.55;;;14.10;74.30;;;;;;5032163;28;20022;-89
2021/05/14 02:52:52;;;;;;;9.48;8.48;;;14.20;74.30;;;;;;5034462;28;20082;-89
2021/05/14 02:55:18;;;;;;;9.57;8.52;;;14.10;74.10;;;;;;5034375;28;20520;-89
2021/05/14 02:57:44;;;;;;;10.32;9.23;;;14.20;74.20;;;;;;5045653;28;20758;-90
2021/05/14 03:00:11;;;;;;;9.38;8.35;;;14.10;74.10;;;;;;5042884;28;20086;-91
2021/05/14 03:02:36;;;;;;;9.93;8.60;;;14.10;74.30;;;;;;5052035;28;20025;-89
2021/05/14 03:05:03;;;;;;;9.88;8.82;;;14.10;74.40;;;;;;5041044;28;20029;-91
2021/05/14 03:07:28;;;;;;;8.73;7.72;;;14.10;74.30;;;;;;5052120;28;20375;-91
2021/05/14 03:09:54;;;;;;;8.30;7.50;;;14.10;74.30;;;;;;5028227;28;20017;-91
2021/05/14 03:12:19;;;;;;;8.40;7.40;;;14.10;74.40;;;;;;5032727;28;20519;-91
2021/05/14 03:14:45;;;;;;;9.43;8.07;;;14.10;74.40;;;;;;5042343;28;20060;-90
2021/05/14 03:17:10;;;;;;;9.07;8.07;;;14.10;74.40;;;;;;5031905;28;20022;-89
2021/05/14 03:19:36;;;;;;;8.07;7.15;;;14.00;74.30;;;;;;5033735;28;20033;-91
2021/05/14 03:22:01;;;;;;;8.07;7.18;;;14.00;74.40;;;;;;5032600;28;20041;-94
2021/05/14 03:24:27;;;;;;;8.05;6.90;;;14.00;74.50;;;;;;5026420;28;20039;-94
2021/05/14 03:26:53;;;;;;;6.45;5.80;;;13.90;74.70;;;;;;5052543;28;20025;-91
2021/05/14 03:29:20;;;;;;;6.68;5.45;;;13.90;74.90;;;;;;5023216;28;20068;-91
2021/05/14 03:31:46;;;;;;;6.90;5.90;;;13.90;75.00;;;;;;5034640;28;20025;-91
2021/05/14 03:34:12;;;;;;;6.03;5.43;;;13.80;75.00;;;;;;5044319;28;20495;-89
2021/05/14 03:36:37;;;;;;;7.72;6.47;;;13.90;75.00;;;;;;5051764;28;20082;-89
2021/05/14 03:39:09;;;;;;;8.05;6.30;;;13.90;75.00;;;;;;5049894;28;20036;-90
2021/05/14 03:41:48;;;;;;;7.35;6.30;;;13.80;75.00;;;;;;5034393;28;20418;-90
2021/05/14 03:44:14;;;;;;;7.78;6.45;;;13.80;75.00;;;;;;5032790;28;20048;-90
2021/05/14 03:46:40;;;;;;;6.95;5.90;;;13.80;75.10;;;;;;5034997;28;20025;-90
2021/05/14 03:49:06;;;;;;;7.55;6.15;;;13.80;75.10;;;;;;5035068;28;20036;-90
2021/05/14 03:51:37;;;;;;;8.35;7.22;;;13.80;75.00;;;;;;5055762;28;20066;-89
2021/05/14 03:54:03;;;;;;;6.97;6.28;;;13.80;75.00;;;;;;5044565;28;20112;-90
2021/05/14 03:56:29;;;;;;;5.55;4.90;;;13.80;74.90;;;;;;5019266;28;20018;-91
2021/05/14 03:58:54;;;;;;;7.50;5.80;;;13.80;74.90;;;;;;5036524;28;20031;-91
2021/05/14 04:01:20;;;;;;;6.65;5.80;;;13.80;74.90;;;;;;5039827;28;20105;-90
2021/05/14 04:03:46;;;;;;;7.13;5.63;;;13.80;75.10;;;;;;5024505;28;20029;-90
2021/05/14 04:06:11;;;;;;;7.07;5.72;;;13.80;75.20;;;;;;5042713;28;20017;-91
2021/05/14 04:08:37;;;;;;;6.50;5.80;;;13.80;75.20;;;;;;5024271;28;20033;-91
2021/05/14 04:11:18;;;;;;;7.30;6.43;;;13.80;75.10;;;;;;5055525;28;20482;-91
2021/05/14 04:16:28;;;;;;;8.25;6.43;;;13.90;75.10;;;;;;5053552;28;20044;-91
2021/05/14 04:18:53;;;;;;;6.63;5.88;;;13.90;74.90;;;;;;5054563;28;20029;-91
2021/05/14 04:21:19;;;;;;;7.97;7.05;;;13.90;74.90;;;;;;5018221;28;20029;-92
2021/05/14 04:23:45;;;;;;;8.25;6.20;;;13.90;74.90;;;;;;5035438;28;20036;-91
2021/05/14 04:26:10;;;;;;;7.65;5.72;;;13.90;75.00;;;;;;5054282;28;20029;-89
2021/05/14 04:28:36;;;;;;;7.28;6.43;;;13.90;74.90;;;;;;5053698;28;20486;-89
2021/05/14 04:31:01;;;;;;;7.50;6.55;;;13.90;75.00;;;;;;5035638;28;20049;-91
2021/05/14 04:33:27;;;;;;;7.72;6.50;;;13.90;75.00;;;;;;5035535;28;20033;-89
2021/05/14 04:35:54;;;;;;;8.68;7.00;;;13.90;75.10;;;;;;5041957;28;20064;-89
2021/05/14 04:38:19;;;;;;;6.10;5.40;;;13.90;75.30;;;;;;5054883;28;20021;-91
2021/05/14 04:40:45;;;;;;;8.85;6.85;;;13.90;75.30;;;;;;5054270;28;20033;-91
2021/05/14 04:43:10;;;;;;;6.88;5.95;;;13.90;75.30;;;;;;5047240;28;20079;-91
2021/05/14 04:45:36;;;;;;;8.43;6.35;;;13.90;75.20;;;;;;5046293;28;20188;-90
2021/05/14 04:48:02;;;;;;;8.02;6.47;;;13.90;75.10;;;;;;5037027;28;20022;-90
2021/05/14 04:50:28;;;;;;;7.53;5.45;;;13.90;75.20;;;;;;5054391;28;20029;-90
2021/05/14 04:53:12;;;;;;;8.50;5.90;;;13.90;75.20;;;;;;5054758;28;20020;-91
2021/05/14 04:55:38;;;;;;;6.47;5.25;;;14.00;75.30;;;;;;5035887;28;20063;-91
2021/05/14 04:58:04;;;;;;;6.68;5.97;;;14.00;75.10;;;;;;5030041;28;20025;-92
2021/05/14 05:00:30;;;;;;;7.03;5.82;;;13.90;75.10;;;;;;5035398;28;20036;-92
2021/05/14 05:02:57;;;;;;;7.05;6.30;;;14.00;75.10;;;;;;5017697;28;20021;-90
2021/05/14 05:05:22;;;;;;;9.70;8.40;;;14.00;75.00;;;;;;5034698;28;20286;-90
2021/05/14 05:07:48;;;;;;;8.30;6.65;;;14.00;75.10;;;;;;5034756;28;20045;-91
2021/05/14 05:10:15;;;;;;;7.88;6.90;;;14.00;75.10;;;;;;5037744;28;20112;-93
2021/05/14 05:12:40;;;;;;;7.88;5.50;;;14.00;75.00;;;;;;5051938;28;20029;-91
2021/05/14 05:15:08;;;;;;;7.20;6.30;;;14.00;75.00;;;;;;5050177;28;20033;-92
2021/05/14 05:17:33;;;;;;;9.13;6.57;;;14.00;75.00;;;;;;5048062;28;20348;-91
2021/05/14 05:20:05;;;;;;;6.20;5.45;;;14.00;75.00;;;;;;5049569;28;20035;-91
2021/05/14 05:22:30;;;;;;;7.07;5.63;;;13.90;75.10;;;;;;5033610;28;20486;-91
2021/05/14 05:24:56;;;;;;;7.88;6.40;;;13.80;75.10;;;;;;5039296;28;20025;-91
2021/05/14 05:27:21;;;;;;;6.10;5.47;;;13.60;75.10;;;;;;5053913;28;20017;-90
2021/05/14 05:29:47;;;;;;;7.38;6.60;;;13.50;75.20;;;;;;5030538;28;20025;-88
2021/05/14 05:32:12;;;;;;;6.45;5.72;;;13.50;75.40;;;;;;5048707;28;20039;-94
2021/05/14 05:34:38;;;;;;;6.13;5.50;;;13.40;75.50;;;;;;5035733;28;20033;-90
2021/05/14 05:37:04;;;;;;;5.88;4.97;;;13.30;75.40;;;;;;5031687;28;20021;-90
2021/05/14 05:39:29;;;;;;;6.30;4.97;;;13.30;75.40;;;;;;5051808;28;20117;-90
2021/05/14 05:41:55;;;;;;;6.05;4.80;;;13.30;75.50;;;;;;5026669;28;20029;-90
2021/05/14 05:44:20;;;;;;;6.40;5.45;;;13.30;75.50;;;;;;5052800;28;20044;-88
2021/05/14 05:46:46;;;;;;;6.97;5.72;;;13.30;75.40;;;;;;5052543;28;20111;-89
2021/05/14 05:49:12;;;;;;;7.45;5.65;;;13.30;75.30;;;;;;5043724;28;20395;-90
2021/05/14 05:51:37;;;;;;;5.53;4.68;;;13.30;75.30;;;;;;5044957;28;20017;-90
2021/05/14 05:54:03;;;;;;;7.13;5.63;;;13.40;75.20;;;;;;5054401;28;20039;-87
2021/05/14 05:56:29;;;;;;;6.78;5.80;;;13.40;75.10;;;;;;5051359;28;20590;-86
2021/05/14 05:58:54;;;;;;;5.68;5.00;;;13.50;75.10;;;;;;5034976;28;20053;-86
2021/05/14 06:01:21;;;;;;;7.60;6.22;;;13.50;75.00;;;;;;5039479;28;20021;-86
2021/05/14 06:03:48;;;;;;;7.78;6.75;;;13.50;75.00;;;;;;5031723;28;20037;-86
2021/05/14 06:06:13;;;;;;;6.45;4.53;;;13.50;75.10;;;;;;5044395;28;20349;-85
2021/05/14 06:08:39;;;;;;;6.38;5.22;;;13.50;75.10;;;;;;5051538;28;20021;-86
2021/05/14 06:11:04;;;;;;;7.43;5.53;;;13.50;75.20;;;;;;5041001;28;20030;-86
2021/05/14 06:13:33;;;;;;;6.28;5.40;;;13.50;75.30;;;;;;5032102;28;20064;-86
2021/05/14 06:15:59;;;;;;;7.38;5.90;;;13.50;75.30;;;;;;5023930;28;20039;-86
2021/05/14 06:18:26;;;;;;;6.45;5.43;;;13.50;75.20;;;;;;5034244;28;20013;-87
2021/05/14 06:20:53;;;;;;;7.15;5.82;;;13.50;75.30;;;;;;5049301;28;20369;-85
2021/05/14 06:23:18;;;;;;;10.00;5.03;;;13.40;75.30;;;;;;5031779;28;20025;-87
2021/05/14 06:25:44;;;;;;;6.70;5.60;;;13.50;75.30;;;;;;5031581;28;20084;-87
2021/05/14 06:28:21;;;;;;;9.38;6.53;;;13.50;75.20;;;;;;5031983;28;20021;-87
2021/05/14 06:30:47;;;;;;;9.15;6.78;;;13.50;75.40;;;;;;5037493;28;20028;-87
2021/05/14 06:33:12;;;;;;;9.40;7.57;;;13.40;75.40;;;;;;5051551;28;20491;-87
2021/05/14 06:35:39;;;;;;;7.78;6.30;;;13.40;75.50;;;;;;5049918;28;20017;-87
2021/05/14 06:38:05;;;;;;;8.80;6.95;;;13.50;75.60;;;;;;5051683;28;20071;-87
2021/05/14 06:40:31;;;;;;;7.35;5.60;;;13.40;75.50;;;;;;5032884;28;20048;-87
2021/05/14 06:42:57;;;;;;;9.82;7.07;;;13.50;75.50;;;;;;5032084;28;20025;-86
2021/05/14 06:45:22;;;;;;;6.82;5.63;;;13.50;75.60;;;;;;5031194;28;20041;-87
2021/05/14 06:47:48;;;;;;;10.65;8.85;;;13.50;75.70;;;;;;5030057;28;20128;-87
2021/05/14 06:50:13;;;;;;;7.55;6.10;;;13.50;75.70;;;;;;5033523;28;20025;-86
2021/05/14 06:52:39;;;;;;;7.85;6.20;;;13.50;75.80;;;;;;5038108;28;20026;-86
2021/05/14 06:55:07;;;;;;;7.28;5.70;;;13.60;75.80;;;;;;5031933;28;20025;-87
2021/05/14 06:57:33;;;;;;;6.13;5.18;;;13.70;75.70;;;;;;5032698;28;20104;-87
2021/05/14 06:59:58;;;;;;;10.00;7.68;;;13.70;75.50;;;;;;5020191;28;20162;-87
2021/05/14 07:02:24;;;;;;;7.88;6.13;;;13.70;75.50;;;;;;5039984;28;20106;-89
2021/05/14 07:04:49;;;;;;;6.97;5.60;;;13.70;75.50;;;;;;5037737;28;20084;-87
2021/05/14 07:07:17;;;;;;;6.68;5.15;;;13.70;75.40;;;;;;5041619;28;20048;-85
2021/05/14 07:09:43;;;;;;;7.68;6.07;;;13.80;75.30;;;;;;5041919;28;20025;-87
2021/05/14 07:12:09;;;;;;;6.97;5.82;;;13.90;75.10;;;;;;5041820;28;20492;-86
2021/05/14 07:14:34;;;;;;;6.38;5.50;;;13.90;75.10;;;;;;5039577;28;20220;-87
2021/05/14 07:17:00;;;;;;;6.72;5.55;;;14.00;75.00;;;;;;5040328;28;20385;-87
2021/05/14 07:19:27;;;;;;;8.68;6.28;;;14.00;74.80;;;;;;5039765;28;20475;-86
2021/05/14 07:21:54;;;;;;;6.03;5.00;;;14.00;74.90;;;;;;5018098;28;20022;-86
2021/05/14 07:24:20;;;;;;;6.28;5.25;;;14.10;74.80;;;;;;5037552;28;20078;-86
2021/05/14 07:26:45;;;;;;;8.57;6.82;;;14.10;74.70;;;;;;5021536;28;20116;-87
2021/05/14 07:29:11;;;;;;;6.32;5.32;;;14.20;74.50;;;;;;5038032;28;20552;-86
2021/05/14 07:31:36;;;;;;;8.25;7.35;;;14.30;74.40;;;;;;5040242;28;20018;-86
2021/05/14 07:34:02;;;;;;;7.82;6.47;;;14.30;74.30;;;;;;5039969;28;20022;-87
2021/05/14 07:36:28;;;;;;;8.23;7.07;;;14.30;74.30;;;;;;5021878;28;20418;-86
2021/05/14 07:38:55;;;;;;;8.52;7.35;;;14.30;74.50;;;;;;5040020;28;20029;-88
2021/05/14 07:41:20;;;;;;;7.97;6.78;;;14.30;74.50;;;;;;5023004;28;20019;-87
2021/05/14 07:43:46;;;;;;;6.82;5.75;;;14.20;74.40;;;;;;5039332;28;20029;-87
2021/05/14 07:46:11;;;;;;;7.10;5.80;;;14.20;74.50;;;;;;5039560;28;20063;-87
2021/05/14 07:48:37;;;;;;;8.25;6.50;;;14.20;74.50;;;;;;5021678;28;20033;-88
2021/05/14 07:51:03;;;;;;;6.80;5.65;;;14.20;74.50;;;;;;5038434;28;20456;-88
2021/05/14 07:53:28;;;;;;;7.70;5.82;;;14.20;74.50;;;;;;5039373;28;20035;-88
2021/05/14 07:55:54;;;;;;;8.10;5.90;;;14.20;74.50;;;;;;5040917;28;20455;-88
2021/05/14 07:58:20;;;;;;;6.63;5.63;;;14.30;74.50;;;;;;5037381;28;20029;-89
2021/05/14 08:00:49;;;;;;;7.40;5.95;;;14.30;74.30;;;;;;5039805;28;20022;-89
2021/05/14 08:03:15;;;;;;;9.15;7.28;;;14.30;74.20;;;;;;5025113;28;20033;-88
2021/05/14 08:05:40;;;;;;;7.38;5.60;;;14.30;74.30;;;;;;5038520;28;20028;-88
2021/05/14 08:08:12;;;;;;;9.95;7.07;;;14.30;74.20;;;;;;5040457;28;20400;-88
2021/05/14 08:10:49;;;;;;;;;;;;;;;;;;;;;
2021/05/14 08:13:15;;;;;;;9.02;6.63;;;14.30;73.90;;;;;;5041026;28;20030;-88
2021/05/14 08:15:41;;;;;;;6.45;5.40;;;14.30;73.90;;;;;;5019466;28;20677;-88
2021/05/14 08:18:07;;;;;;;9.02;7.28;;;14.30;73.80;;;;;;5039604;28;20112;-87
2021/05/14 08:20:33;;;;;;;8.18;6.70;;;14.30;73.70;;;;;;5038734;28;20025;-88
2021/05/14 08:22:58;;;;;;;7.20;5.47;;;14.30;73.70;;;;;;5039292;28;20026;-88
2021/05/14 08:25:24;;;;;;;7.60;6.30;;;14.30;73.50;;;;;;5042910;28;20021;-86
2021/05/14 08:27:50;;;;;;;7.20;5.70;;;14.40;73.30;;;;;;5035933;28;20468;-89
2021/05/14 08:30:16;;;;;;;7.60;6.07;;;14.40;73.20;;;;;;5046676;28;20045;-88
2021/05/14 08:32:42;;;;;;;9.35;6.32;;;14.50;73.10;;;;;;5043237;28;20104;-91
2021/05/14 08:35:09;;;;;;;9.02;7.47;;;14.60;73.00;;;;;;5043397;28;20068;-90
2021/05/14 08:37:36;;;;;;;10.10;8.20;;;14.70;72.70;;;;;;5043652;28;20075;-89
2021/05/14 08:40:05;;;;;;;8.90;6.85;;;14.60;72.50;;;;;;5041897;28;20017;-87
2021/05/14 08:42:30;;;;;;;7.22;5.88;;;14.60;72.50;;;;;;5047600;28;20036;-88
2021/05/14 08:44:56;;;;;;;8.70;6.53;;;14.60;72.40;;;;;;5043100;28;20411;-89
2021/05/14 08:47:23;;;;;;;10.15;7.57;;;14.60;72.40;;;;;;5043617;28;20048;-89
2021/05/14 08:49:49;;;;;;;9.43;7.32;;;14.60;72.30;;;;;;5025228;28;20021;-89
2021/05/14 08:52:16;;;;;;;7.88;6.57;;;14.50;72.20;;;;;;5038878;28;20499;-87
2021/05/14 08:54:44;;;;;;;8.35;5.68;;;14.50;72.40;;;;;;5023447;28;20162;-87
2021/05/14 08:57:11;;;;;;;7.32;6.03;;;14.60;72.50;;;;;;5042128;28;20020;-89
2021/05/14 08:59:38;;;;;;;8.88;6.95;;;14.60;72.50;;;;;;5053843;28;20025;-87
2021/05/14 09:02:04;;;;;;;7.20;5.57;;;14.70;72.40;;;;;;5030392;28;20021;-89
2021/05/14 09:04:30;;;;;;;8.20;6.03;;;14.70;72.20;;;;;;5035137;28;20045;-89
2021/05/14 09:06:56;;;;;;;11.30;8.75;;;14.70;72.80;;;;;;5034094;28;20529;-90
2021/05/14 09:09:22;;;;;;;10.05;7.32;;;14.70;72.00;;;;;;5045488;28;20071;-90
2021/05/14 09:11:51;;;;;;;6.93;5.72;;;14.80;71.90;;;;;;5028604;28;20017;-90
2021/05/14 09:14:45;;;;;;;8.75;6.45;;;14.90;71.60;;;;;;5048640;28;20051;-89
2021/05/14 09:17:12;;;;;;;8.20;6.70;;;14.90;71.50;;;;;;5017158;28;20049;-90
2021/05/14 09:19:40;;;;;;;9.25;6.47;;;14.90;71.30;;;;;;5028857;28;20021;-87
2021/05/14 09:22:23;;;;;;;7.95;6.28;;;14.90;71.20;;;;;;5034307;28;20029;-90
2021/05/14 09:25:06;;;;;;;8.57;6.47;;;15.00;71.10;;;;;;5030052;28;20092;-89
2021/05/14 09:27:37;;;;;;;8.57;6.50;;;14.90;70.90;;;;;;5017086;28;20025;-90
2021/05/14 09:30:08;;;;;;;6.28;5.20;;;14.90;70.90;;;;;;5048775;28;20066;-87
2021/05/14 09:32:35;;;;;;;8.23;5.80;;;15.10;70.90;;;;;;5034463;28;20037;-88
2021/05/14 09:35:03;;;;;;;8.93;6.85;;;15.10;70.30;;;;;;5045170;28;20398;-87
2021/05/14 09:37:29;;;;;;;8.25;6.45;;;15.20;70.00;;;;;;5023717;28;20025;-89
2021/05/14 09:40:19;;;;;;;8.15;6.55;;;15.30;69.80;;;;;;5048260;28;20030;-89
2021/05/14 09:42:47;;;;;;;7.47;5.63;;;15.40;69.60;;;;;;5038919;28;20029;-90
2021/05/14 09:45:20;;;;;;;8.18;6.30;;;15.50;69.40;;;;;;5030016;28;20472;-90
2021/05/14 09:48:02;;;;;;;10.40;8.23;;;15.70;69.00;;;;;;5053584;28;20099;-88
2021/05/14 09:50:32;;;;;;;9.57;7.30;;;15.80;68.80;;;;;;5041179;28;20544;-88
2021/05/14 09:53:06;;;;;;;8.18;6.72;;;15.90;68.50;;;;;;5038223;28;20029;-88
2021/05/14 09:55:32;;;;;;;9.60;7.15;;;16.00;68.30;;;;;;5038420;28;20060;-88
2021/05/14 09:58:04;;;;;;;11.50;9.55;;;16.10;68.00;;;;;;5034871;28;20028;-89
2021/05/14 10:00:30;;;;;;;10.18;7.10;;;16.10;67.70;;;;;;5049184;28;20618;-91
2021/05/14 10:02:59;;;;;;;8.40;6.63;;;16.10;67.40;;;;;;5020720;28;20032;-88
2021/05/14 10:05:25;;;;;;;8.43;6.65;;;16.30;67.20;;;;;;5023173;28;20032;-87
2021/05/14 10:07:51;;;;;;;10.10;7.70;;;16.30;66.60;;;;;;5036240;28;20517;-88
2021/05/14 10:10:18;;;;;;;9.23;7.57;;;16.40;66.40;;;;;;5047551;28;20823;-89
2021/05/14 10:12:47;;;;;;;8.63;6.43;;;16.30;66.20;;;;;;5049753;28;20053;-89
2021/05/14 10:15:12;;;;;;;7.82;6.90;;;16.30;66.20;;;;;;5041199;28;20032;-90
2021/05/14 10:17:39;;;;;;;7.30;6.05;;;16.30;65.50;;;;;;5048106;28;20367;-89
2021/05/14 10:20:12;;;;;;;8.52;7.00;;;16.30;65.50;;;;;;5034146;28;20017;-87
2021/05/14 10:22:38;;;;;;;8.10;6.78;;;16.30;65.30;;;;;;5036802;28;20041;-87
2021/05/14 10:25:04;;;;;;;9.13;6.90;;;16.40;65.30;;;;;;5042530;28;20116;-87
2021/05/14 10:27:37;;;;;;;7.20;5.85;;;16.40;65.10;;;;;;5024751;28;20459;-87
2021/05/14 10:30:03;;;;;;;7.55;6.07;;;16.50;65.00;;;;;;5048281;28;20060;-86
2021/05/14 10:32:44;;;;;;;8.57;7.20;;;16.60;64.80;;;;;;5017533;28;20566;-85
2021/05/14 10:35:30;;;;;;;6.78;5.70;;;16.70;64.20;;;;;;5045757;28;20104;-86
2021/05/14 10:38:06;;;;;;;7.55;6.30;;;16.90;64.10;;;;;;5023197;28;20116;-87
2021/05/14 10:40:33;;;;;;;7.00;5.60;;;16.90;63.30;;;;;;5036889;28;20017;-84
2021/05/14 10:43:07;;;;;;;6.60;4.68;;;17.00;62.90;;;;;;5038341;28;20037;-87
2021/05/14 10:45:42;;;;;;;6.75;5.85;;;17.00;62.60;;;;;;5042486;28;20029;-86
2021/05/14 10:48:17;;;;;;;8.55;6.05;;;17.20;61.90;;;;;;5043599;28;20040;-85
2021/05/14 10:50:53;;;;;;;5.82;4.95;;;17.40;61.60;;;;;;5044278;28;20032;-86
2021/05/14 10:53:36;;;;;;;7.30;5.82;;;17.50;61.50;;;;;;5040871;28;20028;-86
2021/05/14 10:56:11;;;;;;;7.43;5.28;;;17.70;61.10;;;;;;5042220;28;20082;-86
2021/05/14 10:58:50;;;;;;;6.50;4.93;;;17.80;61.00;;;;;;5024032;28;20071;-86
2021/05/14 11:01:36;;;;;;;6.90;5.38;;;17.90;60.60;;;;;;5037960;28;20045;-86
2021/05/14 11:04:23;;;;;;;7.78;5.82;;;17.70;60.30;;;;;;5038186;28;20065;-87
2021/05/14 11:06:51;;;;;;;5.57;4.68;;;17.70;60.30;;;;;;5028651;28;20114;-94
2021/05/14 11:09:17;;;;;;;6.50;5.78;;;17.70;60.20;;;;;;5038875;28;20060;-89
2021/05/14 11:12:00;;;;;;;5.45;4.50;;;17.70;59.50;;;;;;5042519;28;20026;-87
2021/05/14 11:14:27;;;;;;;6.25;4.60;;;17.70;59.50;;;;;;5033292;28;20071;-92
2021/05/14 11:16:56;;;;;;;5.05;4.35;;;17.90;59.30;;;;;;5038575;28;20028;-90
2021/05/14 11:19:29;;;;;;;5.47;4.57;;;18.10;59.20;;;;;;5031860;28;20060;-90
2021/05/14 11:22:10;;;;;;;6.60;5.60;;;18.30;58.90;;;;;;5036407;28;20399;-91
2021/05/14 11:24:40;;;;;;;7.32;5.65;;;18.40;58.30;;;;;;5030115;28;20087;-88
2021/05/14 11:27:12;;;;;;;6.85;5.65;;;18.40;58.20;;;;;;5036099;28;20025;-86
2021/05/14 11:29:44;;;;;;;6.00;4.25;;;18.30;57.50;;;;;;5036445;28;20029;-87
2021/05/14 11:32:17;;;;;;;6.28;4.88;;;18.30;57.60;;;;;;5034924;28;20040;-85
2021/05/14 11:34:57;;;;;;;5.32;4.13;;;18.30;57.20;;;;;;5046151;28;20025;-85
2021/05/14 11:37:29;;;;;;;8.52;6.18;;;18.30;57.80;;;;;;5045003;28;20017;-83
2021/05/14 11:39:55;;;;;;;7.00;5.47;;;18.40;57.30;;;;;;5047769;28;20558;-84
2021/05/14 11:42:23;;;;;;;6.43;5.20;;;18.40;57.30;;;;;;5038849;28;20268;-86
2021/05/14 11:45:04;;;;;;;6.30;4.70;;;18.50;57.10;;;;;;5031054;28;20098;-84
2021/05/14 11:47:29;;;;;;;6.03;4.80;;;18.40;57.10;;;;;;5044430;28;20028;-85
2021/05/14 11:49:57;;;;;;;7.75;5.82;;;18.50;57.10;;;;;;5049294;28;20029;-86
2021/05/14 11:52:42;;;;;;;7.03;5.70;;;18.50;55.90;;;;;;5037635;28;20025;-87
2021/05/14 11:55:13;;;;;;;5.80;5.07;;;18.40;56.10;;;;;;5028009;28;20021;-86
2021/05/14 11:57:40;;;;;;;4.57;3.97;;;18.40;56.30;;;;;;5018586;28;20024;-85
2021/05/14 12:00:10;;;;;;;5.22;4.70;;;18.50;56.00;;;;;;5050075;28;20021;-86
2021/05/14 12:02:36;;;;;;;4.47;3.40;;;18.70;55.70;;;;;;5046952;28;20036;-86
2021/05/14 12:05:03;;;;;;;4.70;4.18;;;19.00;54.80;;;;;;5032919;28;20029;-87
2021/05/14 12:07:29;;;;;;;7.07;5.50;;;19.20;54.70;;;;;;5023123;28;20096;-87
2021/05/14 12:10:06;;;;;;;8.13;5.93;;;19.30;54.50;;;;;;5046193;28;20128;-86
2021/05/14 12:12:32;;;;;;;4.97;4.20;;;19.10;53.90;;;;;;5036601;28;20024;-88
2021/05/14 12:15:11;;;;;;;4.22;3.70;;;19.30;54.40;;;;;;5026923;28;20135;-87
2021/05/14 12:17:38;;;;;;;5.43;4.80;;;19.40;54.10;;;;;;5021607;28;20026;-86
2021/05/14 12:20:26;;;;;;;4.72;4.22;;;19.40;53.70;;;;;;5023247;28;20017;-85
2021/05/14 12:22:55;;;;;;;3.60;3.00;;;19.40;53.70;;;;;;5038362;28;20022;-86
2021/05/14 12:25:21;;;;;;;2.90;2.50;;;19.50;53.50;;;;;;5049344;28;20060;-85
2021/05/14 12:27:47;;;;;;;3.03;2.72;;;19.60;53.20;;;;;;5040143;28;20022;-86
2021/05/14 12:30:16;;;;;;;4.65;3.67;;;19.80;52.70;;;;;;5016335;28;20029;-87
2021/05/14 12:32:52;;;;;;;4.68;4.10;;;19.90;51.70;;;;;;5043406;28;20025;-86
2021/05/14 12:35:21;;;;;;;3.42;2.88;;;19.80;50.70;;;;;;5035070;28;20064;-86
2021/05/14 12:37:58;;;;;;;5.57;3.83;;;19.80;51.20;;;;;;5025333;28;20074;-84
2021/05/14 12:40:32;;;;;;;3.63;3.33;;;19.80;50.90;;;;;;5051873;28;20395;-88
2021/05/14 12:43:09;;;;;;;4.05;3.55;;;20.00;51.00;;;;;;5042667;28;20059;-88
2021/05/14 12:45:36;;;;;;;3.03;2.72;;;20.00;50.80;;;;;;5019192;28;20030;-87
2021/05/14 12:48:03;;;;;;;3.65;2.65;;;20.10;51.10;;;;;;5025500;28;20492;-87
2021/05/14 12:50:30;;;;;;;2.50;2.30;;;20.30;50.60;;;;;;5044596;28;20029;-87
2021/05/14 12:52:55;;;;;;;3.30;3.00;;;20.30;50.20;;;;;;5046739;28;20405;-87